Time;durP1;ratioP1;P1;durP2;ratioP2;P2;SDS_P1;SDS_P2;PMS_P1;PMS_P2;Temp;Humidity;BMP_temperature;BMP_pressure;BME280_temperature;BME280_humidity;BME280_pressure;Samples;Min_cycle;Max_cycle;Signal;HPM_P1;HPM_P2
2020/12/19 00:01:54;;;;;;;26.35;14.93;;;5.10;99.90;;;;;;4952671;28;20038;-62
2020/12/19 00:04:20;;;;;;;28.33;14.45;;;5.10;99.90;;;;;;5012227;28;20101;-61
2020/12/19 00:06:45;;;;;;;26.98;15.25;;;5.00;99.90;;;;;;5024979;28;20109;-61
2020/12/19 00:09:12;;;;;;;26.90;15.18;;;5.00;99.90;;;;;;5016573;28;20100;-60
2020/12/19 00:11:41;;;;;;;25.30;13.80;;;5.00;99.90;;;;;;5015604;28;20117;-60
2020/12/19 00:14:07;;;;;;;25.63;14.65;;;5.00;99.90;;;;;;5014031;28;20640;-63
2020/12/19 00:16:33;;;;;;;26.25;14.35;;;4.90;99.90;;;;;;5014206;28;20059;-63
2020/12/19 00:18:58;;;;;;;28.50;15.70;;;4.90;99.90;;;;;;5020552;28;20400;-62
2020/12/19 00:21:31;;;;;;;26.20;13.77;;;5.00;99.90;;;;;;5019226;28;20034;-60
2020/12/19 00:23:56;;;;;;;33.55;15.88;;;5.00;99.90;;;;;;5021115;28;20469;-59
2020/12/19 00:26:22;;;;;;;29.77;16.08;;;5.00;99.90;;;;;;5021099;28;20070;-60
2020/12/19 00:28:47;;;;;;;29.65;16.08;;;5.00;99.90;;;;;;5021275;28;20117;-60
2020/12/19 00:31:13;;;;;;;26.50;15.15;;;5.00;99.90;;;;;;5019160;28;20025;-61
2020/12/19 00:33:39;;;;;;;25.92;14.95;;;5.00;99.90;;;;;;5022266;28;20022;-60
2020/12/19 00:36:04;;;;;;;28.13;14.57;;;5.10;99.90;;;;;;5022351;28;20040;-61
2020/12/19 00:38:30;;;;;;;24.95;14.13;;;5.10;99.90;;;;;;5019038;28;20081;-61
2020/12/19 00:40:56;;;;;;;26.35;15.52;;;5.20;99.90;;;;;;5022342;28;20025;-62
2020/12/19 00:43:21;;;;;;;21.17;12.73;;;5.30;99.90;;;;;;5021204;28;20037;-60
2020/12/19 00:45:47;;;;;;;27.33;14.52;;;5.40;99.90;;;;;;5020855;28;20040;-61
2020/12/19 00:48:13;;;;;;;21.35;12.80;;;5.50;99.90;;;;;;5020318;28;20117;-60
2020/12/19 00:50:38;;;;;;;22.48;12.93;;;5.60;99.90;;;;;;5024375;28;20025;-61
2020/12/19 00:53:04;;;;;;;20.70;12.60;;;5.70;99.90;;;;;;5023094;28;20028;-61
2020/12/19 00:55:29;;;;;;;19.60;12.50;;;5.70;99.90;;;;;;5023631;28;20372;-61
2020/12/19 00:57:55;;;;;;;19.50;12.52;;;5.70;99.90;;;;;;5020130;28;20053;-61
2020/12/19 01:00:21;;;;;;;22.05;12.27;;;5.80;99.90;;;;;;5010247;28;20045;-62
2020/12/19 01:02:46;;;;;;;20.15;12.35;;;5.80;99.90;;;;;;5022180;28;20029;-62
2020/12/19 01:05:12;;;;;;;21.67;11.82;;;5.90;99.90;;;;;;5010192;28;20466;-63
2020/12/19 01:07:39;;;;;;;20.27;11.88;;;5.90;99.90;;;;;;5029854;28;20021;-60
2020/12/19 01:10:07;;;;;;;19.25;13.13;;;5.90;99.90;;;;;;5021071;28;20143;-62
2020/12/19 01:12:33;;;;;;;20.90;10.93;;;6.10;99.90;;;;;;5018253;28;20045;-62
2020/12/19 01:14:59;;;;;;;20.92;12.13;;;6.10;99.90;;;;;;5020879;28;20045;-62
2020/12/19 01:17:25;;;;;;;20.13;12.15;;;6.10;99.90;;;;;;5026856;28;20383;-63
2020/12/19 01:19:51;;;;;;;21.38;13.38;;;6.10;99.90;;;;;;5038478;28;20032;-61
2020/12/19 01:22:16;;;;;;;21.58;12.80;;;6.10;99.90;;;;;;5031881;28;20032;-63
2020/12/19 01:24:42;;;;;;;19.85;13.75;;;6.10;99.90;;;;;;5029846;28;20033;-63
2020/12/19 01:27:08;;;;;;;21.95;12.88;;;6.00;99.90;;;;;;5029726;28;20036;-63
2020/12/19 01:29:33;;;;;;;21.02;12.63;;;5.90;99.90;;;;;;5030300;28;20454;-61
2020/12/19 01:31:59;;;;;;;20.77;12.25;;;5.80;99.90;;;;;;5023547;28;20451;-63
2020/12/19 01:34:24;;;;;;;21.10;13.07;;;5.70;99.90;;;;;;5014569;28;20428;-62
2020/12/19 01:36:50;;;;;;;23.25;13.43;;;5.70;99.90;;;;;;5015168;28;20149;-62
2020/12/19 01:39:15;;;;;;;22.73;13.98;;;5.60;99.90;;;;;;5006918;28;20060;-62
2020/12/19 01:41:41;;;;;;;21.58;14.15;;;5.50;99.90;;;;;;5012418;28;20125;-63
2020/12/19 01:44:06;;;;;;;26.58;15.02;;;5.50;99.90;;;;;;5007053;28;20120;-61
2020/12/19 01:46:32;;;;;;;27.48;16.52;;;5.50;99.90;;;;;;5007262;28;20711;-61
2020/12/19 01:48:59;;;;;;;27.67;15.45;;;5.50;99.90;;;;;;5015753;28;20041;-62
2020/12/19 01:51:26;;;;;;;27.63;14.93;;;5.50;99.90;;;;;;5016296;28;20030;-63
2020/12/19 01:53:56;;;;;;;27.08;16.13;;;5.50;99.90;;;;;;5022032;28;20033;-62
2020/12/19 01:56:41;;;;;;;26.05;15.80;;;5.60;99.90;;;;;;5016035;28;20376;-62
2020/12/19 01:59:07;;;;;;;25.40;14.10;;;5.70;99.90;;;;;;5017640;28;20033;-61
2020/12/19 02:01:41;;;;;;;27.38;15.43;;;5.80;99.90;;;;;;4989152;28;20479;-62
2020/12/19 02:04:06;;;;;;;26.40;15.48;;;5.80;99.90;;;;;;4993886;28;20021;-63
2020/12/19 02:06:32;;;;;;;24.98;14.50;;;5.90;99.90;;;;;;5015863;28;20077;-61
2020/12/19 02:08:57;;;;;;;24.80;14.10;;;6.00;99.90;;;;;;4987268;28;20492;-63
2020/12/19 02:11:24;;;;;;;25.88;15.13;;;6.00;99.90;;;;;;4987880;28;20033;-61
2020/12/19 02:13:49;;;;;;;24.05;14.80;;;6.10;99.90;;;;;;4987734;28;20015;-62
2020/12/19 02:16:18;;;;;;;23.45;15.18;;;6.10;99.90;;;;;;4991175;28;20030;-61
2020/12/19 02:18:44;;;;;;;24.58;15.32;;;6.10;99.90;;;;;;4997346;28;20038;-60
2020/12/19 02:21:10;;;;;;;22.38;14.25;;;6.20;99.90;;;;;;4995940;28;20112;-61
2020/12/19 02:23:35;;;;;;;23.95;14.45;;;6.20;99.90;;;;;;5002838;28;20674;-62
2020/12/19 02:26:01;;;;;;;23.33;13.10;;;6.20;99.90;;;;;;5011787;28;20017;-62
2020/12/19 02:28:26;;;;;;;21.38;12.60;;;6.20;99.90;;;;;;5017473;28;20026;-63
2020/12/19 02:30:52;;;;;;;26.77;14.43;;;6.20;99.90;;;;;;4995368;28;20023;-61
2020/12/19 02:33:18;;;;;;;23.60;14.25;;;6.20;99.90;;;;;;4989213;28;20117;-61
2020/12/19 02:35:43;;;;;;;23.15;13.50;;;6.20;99.90;;;;;;5001043;28;20018;-62
2020/12/19 02:38:09;;;;;;;24.30;15.07;;;6.20;99.90;;;;;;5003192;28;20033;-62
2020/12/19 02:40:35;;;;;;;22.80;14.38;;;6.20;99.90;;;;;;5015737;28;20044;-62
2020/12/19 02:43:00;;;;;;;27.08;14.60;;;6.10;99.90;;;;;;5014586;28;20635;-63
2020/12/19 02:45:26;;;;;;;25.65;14.23;;;6.00;99.90;;;;;;5013551;28;20025;-63
2020/12/19 02:47:51;;;;;;;24.42;15.30;;;5.90;99.90;;;;;;5007532;28;20391;-60
2020/12/19 02:50:17;;;;;;;22.67;15.07;;;5.90;99.90;;;;;;5004123;28;20384;-63
2020/12/19 02:52:42;;;;;;;27.20;15.00;;;5.80;99.90;;;;;;5002719;28;20447;-64
2020/12/19 02:55:08;;;;;;;25.05;15.00;;;5.70;99.90;;;;;;5007264;28;20111;-63
2020/12/19 02:57:33;;;;;;;23.75;16.23;;;5.70;99.90;;;;;;5012554;28;20030;-62
2020/12/19 02:59:59;;;;;;;26.35;16.42;;;5.60;99.90;;;;;;5012690;28;20034;-63
2020/12/19 03:02:24;;;;;;;25.10;15.50;;;5.50;99.90;;;;;;4993496;28;20056;-62
2020/12/19 03:04:50;;;;;;;25.98;16.02;;;5.40;99.90;;;;;;5014528;28;20045;-62
2020/12/19 03:07:15;;;;;;;28.00;16.63;;;5.40;99.90;;;;;;5005594;28;20053;-63
2020/12/19 03:09:41;;;;;;;28.17;17.67;;;5.30;99.90;;;;;;5017062;28;20037;-62
2020/12/19 03:12:07;;;;;;;31.33;18.05;;;5.30;99.90;;;;;;5005220;28;20022;-62
2020/12/19 03:14:33;;;;;;;29.83;16.70;;;5.30;99.90;;;;;;5009580;28;20517;-63
2020/12/19 03:16:58;;;;;;;33.10;19.38;;;5.30;99.90;;;;;;5009131;28;20757;-64
2020/12/19 03:19:24;;;;;;;32.40;19.10;;;5.20;99.90;;;;;;4998797;28;20168;-64
2020/12/19 03:21:49;;;;;;;35.20;18.88;;;5.20;99.90;;;;;;5010518;28;20065;-62
2020/12/19 03:24:15;;;;;;;34.17;18.67;;;5.20;99.90;;;;;;5004260;28;20561;-63
2020/12/19 03:26:41;;;;;;;36.85;19.23;;;5.20;99.90;;;;;;5004647;28;20026;-62
2020/12/19 03:29:06;;;;;;;35.92;19.15;;;5.10;99.90;;;;;;5018756;28;20088;-64
2020/12/19 03:31:32;;;;;;;34.85;20.77;;;5.20;99.90;;;;;;5012990;28;20033;-61
2020/12/19 03:33:57;;;;;;;37.55;20.33;;;5.20;99.90;;;;;;5004258;28;20026;-61
2020/12/19 03:36:23;;;;;;;33.70;19.60;;;5.20;99.90;;;;;;5011403;28;20736;-63
2020/12/19 03:38:48;;;;;;;39.35;20.98;;;5.10;99.90;;;;;;4997420;28;20432;-63
2020/12/19 03:41:14;;;;;;;34.13;19.27;;;5.10;99.90;;;;;;5012934;28;20037;-63
2020/12/19 03:43:40;;;;;;;37.20;20.35;;;5.10;99.90;;;;;;5018402;28;20071;-61
2020/12/19 03:46:05;;;;;;;43.25;20.65;;;5.00;99.90;;;;;;5005799;28;20116;-61
2020/12/19 03:48:31;;;;;;;34.63;19.67;;;5.10;99.90;;;;;;5012786;28;20446;-62
2020/12/19 03:50:56;;;;;;;36.78;20.23;;;5.10;99.90;;;;;;5007088;28;20033;-63
2020/12/19 03:53:22;;;;;;;40.30;21.70;;;5.10;99.90;;;;;;5003822;28;20038;-62
2020/12/19 03:55:48;;;;;;;31.58;19.45;;;5.10;99.90;;;;;;5015252;28;20042;-63
2020/12/19 03:58:13;;;;;;;35.92;21.02;;;5.10;99.90;;;;;;5017521;28;20483;-62
2020/12/19 04:00:39;;;;;;;33.80;19.77;;;5.10;99.90;;;;;;4993622;28;20402;-63
2020/12/19 04:03:04;;;;;;;36.08;21.10;;;5.10;99.90;;;;;;5012580;28;20406;-63
2020/12/19 04:05:30;;;;;;;37.65;20.52;;;5.10;99.90;;;;;;4997559;28;20037;-63
2020/12/19 04:07:55;;;;;;;34.20;19.38;;;5.00;99.90;;;;;;5005369;28;20062;-63
2020/12/19 04:10:21;;;;;;;41.35;21.58;;;5.00;99.90;;;;;;5012484;28;20038;-63
2020/12/19 04:12:47;;;;;;;42.80;20.48;;;4.90;99.90;;;;;;4995404;28;21031;-64
2020/12/19 04:15:12;;;;;;;40.13;22.15;;;4.90;99.90;;;;;;5013082;28;20037;-64
2020/12/19 04:17:38;;;;;;;39.10;21.52;;;4.90;99.90;;;;;;5005092;28;20026;-64
2020/12/19 04:20:06;;;;;;;43.45;22.48;;;4.80;99.90;;;;;;5016306;28;20475;-62
2020/12/19 04:22:32;;;;;;;42.63;22.65;;;4.90;99.90;;;;;;4988682;28;20051;-64
2020/12/19 04:24:58;;;;;;;43.95;24.02;;;4.90;99.90;;;;;;5012986;28;20034;-63
2020/12/19 04:27:23;;;;;;;40.15;21.83;;;4.90;99.90;;;;;;5014000;28;20029;-64
2020/12/19 04:29:49;;;;;;;43.50;23.80;;;4.90;99.90;;;;;;5026017;28;20536;-63
2020/12/19 04:32:14;;;;;;;46.30;22.63;;;4.90;99.90;;;;;;5009698;28;20025;-62
2020/12/19 04:34:40;;;;;;;39.97;21.77;;;5.00;99.90;;;;;;5001143;28;20022;-63
2020/12/19 04:37:06;;;;;;;39.90;21.60;;;5.00;99.90;;;;;;5013052;28;20021;-64
2020/12/19 04:39:32;;;;;;;42.25;20.63;;;4.90;99.90;;;;;;5014998;28;20088;-64
2020/12/19 04:41:57;;;;;;;36.70;20.15;;;4.90;99.90;;;;;;5010260;28;20034;-64
2020/12/19 04:44:23;;;;;;;43.90;22.13;;;4.90;99.90;;;;;;5019788;28;20067;-64
2020/12/19 04:46:50;;;;;;;45.00;22.45;;;4.90;99.90;;;;;;5007924;28;20092;-63
2020/12/19 04:49:15;;;;;;;44.97;23.17;;;4.90;99.90;;;;;;5000864;28;20025;-60
2020/12/19 04:51:41;;;;;;;46.03;22.38;;;5.00;99.90;;;;;;5003052;28;20048;-64
2020/12/19 04:54:08;;;;;;;39.83;21.92;;;5.00;99.90;;;;;;5015366;28;20562;-61
2020/12/19 04:56:34;;;;;;;37.63;21.05;;;5.00;99.90;;;;;;5009950;28;20079;-63
2020/12/19 04:59:03;;;;;;;38.50;21.60;;;5.10;99.90;;;;;;5024634;28;20032;-63
2020/12/19 05:01:29;;;;;;;43.65;21.75;;;5.10;99.90;;;;;;4988072;28;20070;-63
2020/12/19 05:03:55;;;;;;;35.35;19.65;;;5.10;99.90;;;;;;5023732;28;20072;-63
2020/12/19 05:06:23;;;;;;;38.67;20.52;;;5.10;99.90;;;;;;5004493;28;20049;-63
2020/12/19 05:08:49;;;;;;;38.55;20.58;;;5.10;99.90;;;;;;5003701;28;20095;-64
2020/12/19 05:11:15;;;;;;;35.58;21.05;;;5.10;99.90;;;;;;5014478;28;20093;-64
2020/12/19 05:13:42;;;;;;;39.33;20.73;;;5.20;99.90;;;;;;5011972;28;20117;-63
2020/12/19 05:16:13;;;;;;;34.28;19.08;;;5.20;99.90;;;;;;5012921;28;20727;-62
2020/12/19 05:18:40;;;;;;;41.10;19.70;;;5.20;99.90;;;;;;5006121;28;20060;-63
2020/12/19 05:21:07;;;;;;;34.53;20.92;;;5.20;99.90;;;;;;5008368;28;20161;-60
2020/12/19 05:23:34;;;;;;;36.92;19.60;;;5.20;99.90;;;;;;5024301;28;20505;-61
2020/12/19 05:25:59;;;;;;;36.40;20.55;;;5.10;99.90;;;;;;5026638;28;20082;-61
2020/12/19 05:28:25;;;;;;;40.72;20.55;;;5.10;99.90;;;;;;5028346;28;20033;-63
2020/12/19 05:30:51;;;;;;;46.63;23.63;;;5.00;99.90;;;;;;5037573;28;20575;-62
2020/12/19 05:33:16;;;;;;;41.10;21.75;;;5.10;99.90;;;;;;5032390;28;20018;-62
2020/12/19 05:35:44;;;;;;;40.78;21.77;;;5.10;99.90;;;;;;5027973;28;20068;-62
2020/12/19 05:38:09;;;;;;;39.53;21.48;;;5.10;99.90;;;;;;5030759;28;20111;-63
2020/12/19 05:40:35;;;;;;;47.42;23.08;;;5.10;99.90;;;;;;5035040;28;20487;-63
2020/12/19 05:43:01;;;;;;;73.85;45.42;;;5.10;99.90;;;;;;5034438;28;20438;-64
2020/12/19 05:45:29;;;;;;;59.00;31.95;;;5.10;99.90;;;;;;5023869;28;20028;-63
2020/12/19 05:47:55;;;;;;;69.93;38.33;;;5.10;99.90;;;;;;5020706;28;20040;-61
2020/12/19 05:50:22;;;;;;;96.55;47.58;;;5.10;99.90;;;;;;5027319;28;20033;-63
2020/12/19 05:52:48;;;;;;;41.45;23.75;;;5.10;99.90;;;;;;5022847;28;20029;-63
2020/12/19 05:55:16;;;;;;;42.33;23.15;;;5.20;99.90;;;;;;5027659;28;20018;-61
2020/12/19 05:57:42;;;;;;;47.50;22.52;;;5.30;99.90;;;;;;5021333;28;20018;-64
2020/12/19 06:00:15;;;;;;;40.40;22.42;;;5.40;99.90;;;;;;5023406;28;20025;-64
2020/12/19 06:02:42;;;;;;;39.97;21.35;;;5.40;99.90;;;;;;5012152;28;20049;-63
2020/12/19 06:05:13;;;;;;;41.30;20.65;;;5.50;99.90;;;;;;5032624;28;20454;-64
2020/12/19 06:07:46;;;;;;;38.40;20.23;;;5.60;99.90;;;;;;5020849;28;20803;-63
2020/12/19 06:10:13;;;;;;;34.35;18.70;;;5.70;99.90;;;;;;5031299;28;20034;-63
2020/12/19 06:13:18;;;;;;;30.58;19.13;;;5.70;99.90;;;;;;5027986;28;20048;-62
2020/12/19 06:16:05;;;;;;;30.70;17.52;;;5.70;99.90;;;;;;5037264;28;20026;-62
2020/12/19 06:18:30;;;;;;;27.80;17.08;;;5.80;99.90;;;;;;5022831;28;20029;-62
2020/12/19 06:20:57;;;;;;;28.60;17.63;;;5.70;99.90;;;;;;5034805;28;20079;-64
2020/12/19 06:23:31;;;;;;;33.55;19.42;;;5.80;99.90;;;;;;5018788;28;20060;-64
2020/12/19 06:25:57;;;;;;;;;;;5.80;99.90;;;;;;5027488;28;20021;-63
2020/12/19 06:28:43;;;;;;;27.95;16.60;;;5.80;99.90;;;;;;5038731;28;20428;-61
2020/12/19 06:31:12;;;;;;;31.98;17.98;;;5.90;99.90;;;;;;5032905;28;20215;-62
2020/12/19 06:33:39;;;;;;;28.05;17.40;;;6.10;99.90;;;;;;5021659;28;20025;-63
2020/12/19 06:36:17;;;;;;;26.85;17.30;;;6.10;99.90;;;;;;5027344;28;20038;-62
2020/12/19 06:38:50;;;;;;;29.02;15.88;;;6.20;99.90;;;;;;5028100;28;20060;-63
2020/12/19 06:41:45;;;;;;;23.65;15.98;;;6.20;99.90;;;;;;5026706;28;20030;-63
2020/12/19 06:44:27;;;;;;;24.65;16.30;;;6.20;99.90;;;;;;5031027;28;20079;-63
2020/12/19 06:46:54;;;;;;;26.23;16.20;;;6.20;99.90;;;;;;5022471;28;20021;-62
2020/12/19 06:49:22;;;;;;;25.02;15.13;;;6.20;99.90;;;;;;5025768;28;20159;-62
2020/12/19 06:52:06;;;;;;;25.80;16.35;;;6.10;99.90;;;;;;4981750;28;20726;-63
2020/12/19 06:54:32;;;;;;;26.10;15.35;;;6.10;99.90;;;;;;5031430;28;20029;-63
2020/12/19 06:56:59;;;;;;;29.92;17.27;;;6.00;99.90;;;;;;5028025;28;20181;-62
2020/12/19 06:59:26;;;;;;;28.23;16.52;;;6.00;99.90;;;;;;5039375;28;20546;-62
2020/12/19 07:01:51;;;;;;;28.98;16.13;;;6.00;99.90;;;;;;5004860;28;20050;-64
2020/12/19 07:04:34;;;;;;;28.33;16.73;;;5.90;99.90;;;;;;5041167;28;20052;-64
2020/12/19 07:07:04;;;;;;;29.83;17.77;;;6.00;99.90;;;;;;5030695;28;20556;-63
2020/12/19 07:09:30;;;;;;;28.50;17.95;;;6.00;99.90;;;;;;5032675;28;20025;-63
2020/12/19 07:11:56;;;;;;;29.40;17.10;;;5.90;99.90;;;;;;5028939;28;20507;-63
2020/12/19 07:14:22;;;;;;;25.15;16.30;;;5.90;99.90;;;;;;5031936;28;20432;-64
2020/12/19 07:16:50;;;;;;;29.23;17.27;;;5.80;99.90;;;;;;5035153;28;20486;-62
2020/12/19 07:19:24;;;;;;;30.58;17.95;;;5.80;99.90;;;;;;5019503;28;20078;-62
2020/12/19 07:21:50;;;;;;;27.45;16.70;;;5.70;99.90;;;;;;5022526;28;20798;-63
2020/12/19 07:24:16;;;;;;;27.35;16.63;;;5.70;99.90;;;;;;5030171;28;20033;-62
2020/12/19 07:26:42;;;;;;;25.88;16.10;;;5.70;99.90;;;;;;5036140;28;20689;-63
2020/12/19 07:29:33;;;;;;;30.45;18.02;;;5.70;99.90;;;;;;5029807;28;20031;-62
2020/12/19 07:32:00;;;;;;;35.78;20.27;;;5.60;99.90;;;;;;5024635;28;20087;-65
2020/12/19 07:34:27;;;;;;;46.45;25.10;;;5.60;99.90;;;;;;5013177;28;20028;-62
2020/12/19 07:36:54;;;;;;;37.33;20.70;;;5.50;99.90;;;;;;5035436;28;20116;-63
2020/12/19 07:39:21;;;;;;;39.33;22.33;;;5.50;99.90;;;;;;5031230;28;20557;-63
2020/12/19 07:42:08;;;;;;;31.35;18.55;;;5.60;99.90;;;;;;5033210;28;20030;-63
2020/12/19 07:44:35;;;;;;;34.78;19.38;;;5.60;99.90;;;;;;5035212;28;20072;-63
2020/12/19 07:47:09;;;;;;;28.55;18.05;;;5.60;99.90;;;;;;5024873;28;20117;-62
2020/12/19 07:49:45;;;;;;;36.67;17.13;;;5.70;99.90;;;;;;5026274;28;20124;-63
2020/12/19 07:52:12;;;;;;;38.90;18.20;;;5.70;99.90;;;;;;5016314;28;20112;-63
2020/12/19 07:54:39;;;;;;;31.77;18.48;;;5.70;99.90;;;;;;5030928;28;20057;-61
2020/12/19 07:57:05;;;;;;;32.38;17.25;;;5.70;99.90;;;;;;5032856;28;20029;-61
2020/12/19 07:59:33;;;;;;;26.77;16.75;;;5.80;99.90;;;;;;5039466;28;20037;-61
2020/12/19 08:02:04;;;;;;;27.73;16.02;;;5.90;99.90;;;;;;5005641;28;20147;-61
2020/12/19 08:04:31;;;;;;;30.42;16.63;;;5.90;99.90;;;;;;5022446;28;20040;-62
2020/12/19 08:06:58;;;;;;;27.38;16.02;;;5.90;99.90;;;;;;5022324;28;20026;-63
2020/12/19 08:09:24;;;;;;;26.17;14.50;;;6.00;99.90;;;;;;5031515;28;20033;-63
2020/12/19 08:11:51;;;;;;;25.60;15.57;;;6.10;99.90;;;;;;5038178;28;20487;-64
2020/12/19 08:14:18;;;;;;;22.75;13.82;;;6.10;99.90;;;;;;5034844;28;20014;-63
2020/12/19 08:16:45;;;;;;;27.08;14.65;;;6.10;99.90;;;;;;5022012;28;20060;-62
2020/12/19 08:19:14;;;;;;;27.25;14.18;;;6.20;99.90;;;;;;5024888;28;20052;-63
2020/12/19 08:21:43;;;;;;;23.50;13.85;;;6.30;99.90;;;;;;5027683;28;20104;-64
2020/12/19 08:24:10;;;;;;;24.63;13.57;;;6.30;99.90;;;;;;5025935;28;20029;-63
2020/12/19 08:26:35;;;;;;;24.10;13.10;;;6.40;99.90;;;;;;5039714;28;20032;-63
2020/12/19 08:29:08;;;;;;;19.48;12.45;;;6.50;99.90;;;;;;5040855;28;20539;-64
2020/12/19 08:31:37;;;;;;;18.67;12.13;;;6.50;99.90;;;;;;5034845;28;20028;-64
2020/12/19 08:34:05;;;;;;;16.13;11.10;;;6.50;99.90;;;;;;5037042;28;20347;-60
2020/12/19 08:36:31;;;;;;;19.60;11.60;;;6.60;99.90;;;;;;5027272;28;20025;-63
2020/12/19 08:39:16;;;;;;;21.15;11.70;;;6.60;99.90;;;;;;5029079;28;20013;-62
2020/12/19 08:41:43;;;;;;;17.02;10.48;;;6.60;99.90;;;;;;5016756;28;20026;-63
2020/12/19 08:44:26;;;;;;;19.33;10.38;;;6.60;99.90;;;;;;5021509;28;20539;-62
2020/12/19 08:47:05;;;;;;;19.30;11.45;;;6.60;99.90;;;;;;5023313;28;20028;-62
2020/12/19 08:49:31;;;;;;;19.58;10.48;;;6.70;99.90;;;;;;5017829;28;20033;-64
2020/12/19 08:51:57;;;;;;;21.95;12.25;;;6.70;99.90;;;;;;5021932;28;20349;-63
2020/12/19 08:54:23;;;;;;;17.92;11.32;;;6.70;99.90;;;;;;5028955;28;20028;-63
2020/12/19 08:56:50;;;;;;;17.38;10.93;;;6.70;99.90;;;;;;5032049;28;20021;-63
2020/12/19 08:59:26;;;;;;;19.38;11.45;;;6.80;99.90;;;;;;5043974;28;20025;-63
2020/12/19 09:01:56;;;;;;;17.80;10.63;;;6.90;99.90;;;;;;5023517;28;20072;-61
2020/12/19 09:04:22;;;;;;;18.63;12.02;;;7.00;99.90;;;;;;5025961;28;20114;-61
2020/12/19 09:06:55;;;;;;;17.70;10.20;;;7.00;99.90;;;;;;5018096;28;20030;-62
2020/12/19 09:09:30;;;;;;;20.60;11.07;;;7.10;99.90;;;;;;5030825;28;20461;-63
2020/12/19 09:12:12;;;;;;;18.55;10.18;;;7.10;99.90;;;;;;5038998;28;20021;-64
2020/12/19 09:14:38;;;;;;;16.05;9.15;;;7.10;99.90;;;;;;5045688;28;20044;-63
2020/12/19 09:17:03;;;;;;;19.00;10.75;;;7.10;99.90;;;;;;5014488;28;20099;-63
2020/12/19 09:19:29;;;;;;;14.70;9.15;;;7.20;99.90;;;;;;5017649;28;20030;-62
2020/12/19 09:21:59;;;;;;;21.05;10.68;;;7.20;99.90;;;;;;5014990;28;20466;-63
2020/12/19 09:24:25;;;;;;;14.82;9.10;;;7.30;99.90;;;;;;5007567;28;20052;-62
2020/12/19 09:26:51;;;;;;;13.18;9.32;;;7.30;99.90;;;;;;5015295;28;20041;-63
2020/12/19 09:29:17;;;;;;;16.67;9.00;;;7.50;99.90;;;;;;5011309;28;20034;-64
2020/12/19 09:31:43;;;;;;;14.32;8.55;;;7.60;99.90;;;;;;5011435;28;20030;-64
2020/12/19 09:34:09;;;;;;;13.07;8.52;;;7.70;99.90;;;;;;5026347;28;20034;-59
2020/12/19 09:36:35;;;;;;;11.82;7.60;;;7.80;99.90;;;;;;5050029;28;20044;-63
2020/12/19 09:39:00;;;;;;;14.38;8.75;;;7.90;99.90;;;;;;5028664;28;20032;-63
2020/12/19 09:41:26;;;;;;;13.40;8.18;;;8.10;99.90;;;;;;5054279;28;20516;-63
2020/12/19 09:43:51;;;;;;;12.82;7.38;;;8.10;99.90;;;;;;5034703;28;20537;-64
2020/12/19 09:46:17;;;;;;;9.40;6.88;;;8.10;99.90;;;;;;5024224;28;20399;-63
2020/12/19 09:48:43;;;;;;;13.85;7.72;;;8.20;99.90;;;;;;5017388;28;20029;-63
2020/12/19 09:51:09;;;;;;;14.30;8.40;;;8.20;99.90;;;;;;5018247;28;20030;-62
2020/12/19 09:53:37;;;;;;;13.07;7.45;;;8.20;99.90;;;;;;5015654;28;20034;-63
2020/12/19 09:56:04;;;;;;;14.23;8.60;;;8.20;99.90;;;;;;5036157;28;20017;-63
2020/12/19 09:58:30;;;;;;;30.08;18.02;;;8.20;99.90;;;;;;5034772;28;20355;-63
2020/12/19 10:00:55;;;;;;;12.68;9.00;;;8.20;99.90;;;;;;5030885;28;20064;-64
2020/12/19 10:03:21;;;;;;;14.45;7.78;;;8.20;99.90;;;;;;5017817;28;20114;-63
2020/12/19 10:05:46;;;;;;;13.00;7.80;;;8.20;99.90;;;;;;5030602;28;20044;-63
2020/12/19 10:08:12;;;;;;;13.05;7.70;;;8.20;99.90;;;;;;5028136;28;20037;-64
2020/12/19 10:10:39;;;;;;;11.98;7.25;;;8.20;99.90;;;;;;5026910;28;20549;-63
2020/12/19 10:13:04;;;;;;;11.80;7.45;;;8.30;99.90;;;;;;5018294;28;20487;-62
2020/12/19 10:15:30;;;;;;;13.77;7.18;;;8.30;99.90;;;;;;5014990;28;20045;-63
2020/12/19 10:17:56;;;;;;;15.68;8.70;;;8.40;99.90;;;;;;5022214;28;20030;-62
2020/12/19 10:20:21;;;;;;;13.10;9.05;;;8.40;99.90;;;;;;5018318;28;20546;-62
2020/12/19 10:22:47;;;;;;;10.18;6.35;;;8.50;99.90;;;;;;5024591;28;20511;-61
2020/12/19 10:25:12;;;;;;;22.40;11.68;;;8.50;99.90;;;;;;5025704;28;20054;-61
2020/12/19 10:27:39;;;;;;;34.63;15.95;;;8.60;99.90;;;;;;5027307;28;20037;-61
2020/12/19 10:30:04;;;;;;;13.57;8.30;;;8.60;99.90;;;;;;5035404;28;20573;-63
2020/12/19 10:32:30;;;;;;;10.52;6.32;;;8.60;99.90;;;;;;5016801;28;20029;-62
2020/12/19 10:34:56;;;;;;;15.50;10.05;;;8.70;99.90;;;;;;5029296;28;20021;-62
2020/12/19 10:37:22;;;;;;;12.32;6.07;;;8.70;99.90;;;;;;5024354;28;20112;-61
2020/12/19 10:39:47;;;;;;;9.77;5.68;;;8.80;99.90;;;;;;5019787;28;20030;-61
2020/12/19 10:42:13;;;;;;;15.02;7.70;;;8.80;99.90;;;;;;5014920;28;20029;-60
2020/12/19 10:44:39;;;;;;;13.45;7.68;;;8.90;99.90;;;;;;5018325;28;20036;-62
2020/12/19 10:47:04;;;;;;;10.18;6.75;;;8.90;99.90;;;;;;5028796;28;20406;-61
2020/12/19 10:49:30;;;;;;;10.85;6.85;;;9.00;99.90;;;;;;5016330;28;20033;-62
2020/12/19 10:51:56;;;;;;;9.65;6.03;;;9.10;99.90;;;;;;5010535;28;20021;-62
2020/12/19 10:54:22;;;;;;;9.43;5.80;;;9.20;99.90;;;;;;5010233;28;20030;-62
2020/12/19 10:56:47;;;;;;;10.35;5.93;;;9.20;99.90;;;;;;5010315;28;20037;-61
2020/12/19 10:59:13;;;;;;;8.65;5.82;;;9.30;99.90;;;;;;5008765;28;20034;-62
2020/12/19 11:01:39;;;;;;;10.15;6.43;;;9.30;99.90;;;;;;5009632;28;20116;-62
2020/12/19 11:04:04;;;;;;;8.18;5.13;;;9.30;99.90;;;;;;4994259;28;21738;-62
2020/12/19 11:06:30;;;;;;;9.48;5.28;;;9.30;99.90;;;;;;5011779;28;20029;-62
2020/12/19 11:08:55;;;;;;;9.80;5.60;;;9.40;99.90;;;;;;5013867;28;20029;-63
2020/12/19 11:11:22;;;;;;;8.68;4.97;;;9.40;99.90;;;;;;5009796;28;20017;-61
2020/12/19 11:13:49;;;;;;;8.70;4.97;;;9.50;99.90;;;;;;5009258;28;20058;-63
2020/12/19 11:16:26;;;;;;;11.95;4.88;;;9.50;99.90;;;;;;5009729;28;20029;-62
2020/12/19 11:18:51;;;;;;;10.60;5.18;;;9.60;99.90;;;;;;5012182;28;20021;-62
2020/12/19 11:21:18;;;;;;;8.40;4.72;;;9.70;99.90;;;;;;5008852;28;20026;-63
2020/12/19 11:23:44;;;;;;;7.13;4.90;;;9.70;99.90;;;;;;5009477;28;20038;-61
2020/12/19 11:26:10;;;;;;;7.13;4.75;;;9.80;99.90;;;;;;5012939;28;20022;-60
2020/12/19 11:28:37;;;;;;;10.85;4.82;;;9.90;99.90;;;;;;5008615;28;20025;-63
2020/12/19 11:31:02;;;;;;;8.18;4.65;;;10.00;99.90;;;;;;5016808;28;20053;-62
2020/12/19 11:33:28;;;;;;;10.45;4.60;;;10.00;99.90;;;;;;5024604;28;20486;-62
2020/12/19 11:35:54;;;;;;;8.85;4.22;;;10.00;99.90;;;;;;5036333;28;20049;-63
2020/12/19 11:38:19;;;;;;;6.03;4.05;;;10.10;99.90;;;;;;5027055;28;20030;-62
2020/12/19 11:40:45;;;;;;;6.85;3.97;;;10.20;99.90;;;;;;5032411;28;20426;-62
2020/12/19 11:43:10;;;;;;;6.03;4.13;;;10.30;99.90;;;;;;5032796;28;20167;-62
2020/12/19 11:45:36;;;;;;;9.38;5.15;;;10.30;99.90;;;;;;5034860;28;20025;-63
2020/12/19 11:48:01;;;;;;;7.95;4.35;;;10.30;99.90;;;;;;5033689;28;20099;-63
2020/12/19 11:50:27;;;;;;;7.05;4.30;;;10.40;99.90;;;;;;5033686;28;20021;-62
2020/12/19 11:52:53;;;;;;;6.15;4.63;;;10.40;99.90;;;;;;5038808;28;20026;-64
2020/12/19 11:55:18;;;;;;;6.70;4.35;;;10.40;99.90;;;;;;5029811;28;20609;-63
2020/12/19 11:57:44;;;;;;;17.60;10.75;;;10.50;99.90;;;;;;5029950;28;20080;-63
2020/12/19 12:00:10;;;;;;;15.57;7.65;;;10.50;99.90;;;;;;5037338;28;20087;-62
2020/12/19 12:02:35;;;;;;;10.48;5.97;;;10.60;99.90;;;;;;5032629;28;20040;-63
2020/12/19 12:05:01;;;;;;;17.65;6.65;;;10.70;99.90;;;;;;5018797;28;20037;-63
2020/12/19 12:07:27;;;;;;;11.85;5.45;;;10.70;99.90;;;;;;5030374;28;20147;-64
2020/12/19 12:09:52;;;;;;;6.28;4.25;;;10.70;99.90;;;;;;5033084;28;20112;-64
2020/12/19 12:12:18;;;;;;;9.57;4.93;;;10.80;99.90;;;;;;5043600;28;20048;-63
2020/12/19 12:14:44;;;;;;;7.35;4.63;;;10.90;99.90;;;;;;5043014;28;20017;-63
2020/12/19 12:17:09;;;;;;;12.85;5.80;;;11.00;99.90;;;;;;5038266;28;20555;-62
2020/12/19 12:19:35;;;;;;;4.97;3.35;;;11.10;99.90;;;;;;5038186;28;20048;-64
2020/12/19 12:22:00;;;;;;;5.18;3.72;;;11.20;99.90;;;;;;5043473;28;20029;-62
2020/12/19 12:24:26;;;;;;;8.05;4.15;;;11.30;99.90;;;;;;5029189;28;20782;-63
2020/12/19 12:26:51;;;;;;;8.65;5.05;;;11.40;99.90;;;;;;5035120;28;20098;-63
2020/12/19 12:29:17;;;;;;;9.80;4.93;;;11.50;99.90;;;;;;5038281;28;20067;-63
2020/12/19 12:31:43;;;;;;;7.70;4.40;;;11.60;99.90;;;;;;5037362;28;20105;-64
2020/12/19 12:34:08;;;;;;;5.60;3.88;;;11.60;99.90;;;;;;5035217;28;20013;-63
2020/12/19 12:36:36;;;;;;;5.55;3.45;;;11.70;99.90;;;;;;5040193;28;20029;-64
2020/12/19 12:39:03;;;;;;;8.35;4.25;;;11.80;99.90;;;;;;5030952;28;20104;-63
2020/12/19 12:41:28;;;;;;;8.45;4.75;;;11.80;99.90;;;;;;5024167;28;20038;-63